createdAt,value
2023-06-11T00:00:39.369Z,22.56
2023-06-11T00:03:48.470Z,22.52
2023-06-11T00:06:53.550Z,22.30
2023-06-11T00:09:57.527Z,22.40
2023-06-11T00:13:01.570Z,22.26
2023-06-11T00:16:05.802Z,22.32
2023-06-11T00:19:11.347Z,22.13
2023-06-11T00:22:16.400Z,22.25
2023-06-11T00:25:20.646Z,22.17
2023-06-11T00:28:24.729Z,22.13
2023-06-11T00:31:28.818Z,22.07
2023-06-11T00:34:34.468Z,22.21
2023-06-11T00:37:38.823Z,22.20
2023-06-11T00:40:43.889Z,22.43
2023-06-11T00:43:50.406Z,22.34
2023-06-11T00:46:55.608Z,22.17
2023-06-11T00:50:01.429Z,22.29
2023-06-11T00:53:05.639Z,22.30
2023-06-11T00:56:13.040Z,22.23
2023-06-11T00:59:21.210Z,22.02
2023-06-11T01:02:29.658Z,21.85
2023-06-11T01:05:44.405Z,22.23
2023-06-11T01:08:54.555Z,22.13
2023-06-11T01:12:03.994Z,22.08
2023-06-11T01:15:14.664Z,21.93
2023-06-11T01:18:20.697Z,22.10
2023-06-11T01:21:31.886Z,21.85
2023-06-11T01:24:54.895Z,21.96
2023-06-11T01:28:07.396Z,21.99
2023-06-11T01:31:16.298Z,21.98
2023-06-11T01:34:20.685Z,22.11
2023-06-11T01:37:24.856Z,22.31
2023-06-11T01:40:29.846Z,22.38
2023-06-11T01:43:37.706Z,22.18
2023-06-11T01:46:42.023Z,22.16
2023-06-11T01:49:46.295Z,22.06
2023-06-11T01:52:51.454Z,22.09
2023-06-11T01:55:58.217Z,22.13
2023-06-11T01:59:04.552Z,22.08
2023-06-11T02:02:11.126Z,22.13
2023-06-11T02:05:15.427Z,21.98
2023-06-11T02:08:19.516Z,21.98
2023-06-11T02:11:23.515Z,22.10
2023-06-11T02:14:29.260Z,22.00
2023-06-11T02:17:33.253Z,21.75
2023-06-11T02:20:37.649Z,21.74
2023-06-11T02:23:41.813Z,21.62
2023-06-11T02:26:45.963Z,21.78
2023-06-11T02:29:51.848Z,21.85
2023-06-11T02:32:56.366Z,21.74
2023-06-11T02:36:00.524Z,21.66
2023-06-11T02:39:04.835Z,21.82
2023-06-11T02:42:09.395Z,21.75
2023-06-11T02:45:15.258Z,21.87
2023-06-11T02:48:19.306Z,21.84
2023-06-11T02:51:23.466Z,21.90
2023-06-11T02:54:27.470Z,21.98
2023-06-11T02:57:32.345Z,21.94
2023-06-11T03:00:38.039Z,22.03
2023-06-11T03:03:42.362Z,21.96
2023-06-11T03:06:48.211Z,21.93
2023-06-11T03:09:52.516Z,21.98
2023-06-11T03:12:56.698Z,22.10
2023-06-11T03:16:02.629Z,21.70
2023-06-11T03:19:06.897Z,21.82
2023-06-11T03:22:11.404Z,22.09
2023-06-11T03:25:15.827Z,22.15
2023-06-11T03:28:20.366Z,22.15
2023-06-11T03:31:26.130Z,22.24
2023-06-11T03:34:30.536Z,21.99
2023-06-11T03:37:37.027Z,22.24
2023-06-11T03:40:41.270Z,22.14
2023-06-11T03:43:45.962Z,22.24
2023-06-11T03:46:52.578Z,22.14
2023-06-11T03:49:56.676Z,21.85
2023-06-11T03:53:00.958Z,22.11
2023-06-11T03:56:05.942Z,22.25
2023-06-11T03:59:10.006Z,22.47
2023-06-11T04:02:15.911Z,22.59
2023-06-11T04:05:20.763Z,22.51
2023-06-11T04:08:31.382Z,22.61
2023-06-11T04:11:35.844Z,22.39
2023-06-11T04:14:40.343Z,22.57
2023-06-11T04:17:46.490Z,22.65
2023-06-11T04:20:50.598Z,22.86
2023-06-11T04:23:56.845Z,23.14
2023-06-11T04:27:01.271Z,22.71
2023-06-11T04:30:06.128Z,22.91
2023-06-11T04:33:11.797Z,23.00
2023-06-11T04:36:16.877Z,22.92
2023-06-11T04:39:21.524Z,22.75
2023-06-11T04:42:26.166Z,22.48
2023-06-11T04:45:31.893Z,22.81
2023-06-11T04:48:39.475Z,22.89
2023-06-11T04:51:43.879Z,23.11
2023-06-11T04:54:48.106Z,23.27
2023-06-11T04:57:53.144Z,23.28
2023-06-11T05:00:58.926Z,23.40
2023-06-11T05:04:04.673Z,23.24
2023-06-11T05:07:09.167Z,23.36
2023-06-11T05:10:15.383Z,23.09
2023-06-11T05:13:23.773Z,23.31
2023-06-11T05:16:27.994Z,23.39
2023-06-11T05:19:34.731Z,23.58
2023-06-11T05:22:39.070Z,23.62
2023-06-11T05:25:48.565Z,23.64
2023-06-11T05:28:55.530Z,23.75
2023-06-11T05:32:01.898Z,23.85
2023-06-11T05:35:09.858Z,23.48
2023-06-11T05:38:15.168Z,23.74
2023-06-11T05:41:20.388Z,24.29
2023-06-11T05:44:24.786Z,24.35
2023-06-11T05:47:29.128Z,24.66
2023-06-11T05:50:34.993Z,24.99
2023-06-11T05:53:39.986Z,25.14
2023-06-11T05:56:44.851Z,25.31
2023-06-11T05:59:49.993Z,25.34
2023-06-11T06:02:55.752Z,25.31
2023-06-11T06:06:06.735Z,25.16
2023-06-11T06:09:10.985Z,25.39
2023-06-11T06:12:15.050Z,25.57
2023-06-11T06:15:19.605Z,25.93
2023-06-11T06:18:24.154Z,25.87
2023-06-11T06:21:29.905Z,25.90
2023-06-11T06:24:34.457Z,26.16
2023-06-11T06:27:39.074Z,26.32
2023-06-11T06:30:46.237Z,26.33
2023-06-11T06:33:50.987Z,26.36
2023-06-11T06:36:57.778Z,26.24
2023-06-11T06:40:02.165Z,26.34
2023-06-11T06:43:06.533Z,26.34
2023-06-11T06:46:12.290Z,26.54
2023-06-11T06:49:17.351Z,26.30
2023-06-11T06:52:23.938Z,26.22
2023-06-11T06:55:28.300Z,26.71
2023-06-11T06:58:39.553Z,27.06
2023-06-11T07:01:44.073Z,27.22
2023-06-11T07:04:49.968Z,27.33
2023-06-11T07:07:56.830Z,27.30
2023-06-11T07:11:01.789Z,27.44
2023-06-11T07:14:24.199Z,26.80
2023-06-11T07:17:29.175Z,27.39
2023-06-11T07:20:34.458Z,27.35
2023-06-11T07:23:40.301Z,27.74
2023-06-11T07:26:45.421Z,28.31
2023-06-11T07:29:50.542Z,28.28
2023-06-11T07:32:55.878Z,28.39
2023-06-11T07:36:01.037Z,28.30
2023-06-11T07:39:07.182Z,28.62
2023-06-11T07:42:11.787Z,28.59
2023-06-11T07:45:16.875Z,29.09
2023-06-11T07:48:21.173Z,29.14
2023-06-11T07:51:27.117Z,29.31
2023-06-11T07:54:39.147Z,29.61
2023-06-11T07:57:43.496Z,29.90
2023-06-11T08:00:47.646Z,29.96
2023-06-11T08:03:51.993Z,30.13
2023-06-11T08:06:56.252Z,30.02
2023-06-11T08:10:01.846Z,29.91
2023-06-11T08:13:06.233Z,30.34
2023-06-11T08:16:10.531Z,30.31
2023-06-11T08:19:14.787Z,30.28
2023-06-11T08:22:18.950Z,30.03
2023-06-11T08:25:24.484Z,29.93
2023-06-11T08:28:29.645Z,30.25
2023-06-11T08:31:34.107Z,30.26
2023-06-11T08:34:38.367Z,30.50
2023-06-11T08:37:42.604Z,30.62
2023-06-11T08:40:48.335Z,30.58
2023-06-11T08:43:52.764Z,30.81
2023-06-11T08:46:58.707Z,30.91
2023-06-11T08:50:04.410Z,30.54
2023-06-11T08:53:09.622Z,30.12
2023-06-11T08:56:15.412Z,30.51
2023-06-11T08:59:20.538Z,30.24
2023-06-11T09:02:27.327Z,30.29
2023-06-11T09:05:31.580Z,30.66
2023-06-11T09:08:35.846Z,30.88
2023-06-11T09:11:41.702Z,30.87
2023-06-11T09:14:54.331Z,31.28
2023-06-11T09:17:58.467Z,31.59
2023-06-11T09:21:02.879Z,31.45
2023-06-11T09:24:11.074Z,32.20
2023-06-11T09:27:17.532Z,32.14
2023-06-11T09:30:22.743Z,32.62
2023-06-11T09:33:27.540Z,31.68
2023-06-11T09:36:32.834Z,32.74
2023-06-11T09:39:37.215Z,32.68
2023-06-11T09:42:45.100Z,32.77
2023-06-11T09:45:54.194Z,31.83
2023-06-11T09:48:59.039Z,31.32
2023-06-11T09:52:04.922Z,31.18
2023-06-11T09:55:11.053Z,31.95
2023-06-11T09:58:18.346Z,32.36
2023-06-11T10:01:22.764Z,32.46
2023-06-11T10:04:27.016Z,31.46
2023-06-11T10:07:34.018Z,32.12
2023-06-11T10:10:43.579Z,32.07
2023-06-11T10:13:58.881Z,31.99
2023-06-11T10:17:04.109Z,32.32
2023-06-11T10:20:18.691Z,32.47
2023-06-11T10:23:23.268Z,32.74
2023-06-11T10:26:36.294Z,32.90
2023-06-11T10:29:43.787Z,32.72
2023-06-11T10:32:52.462Z,31.83
2023-06-11T10:36:03.879Z,31.91
2023-06-11T10:39:10.459Z,31.92
2023-06-11T10:42:14.793Z,31.84
2023-06-11T10:45:20.357Z,31.57
2023-06-11T10:48:30.530Z,32.01
2023-06-11T10:51:42.200Z,31.76
2023-06-11T10:54:51.621Z,31.77
2023-06-11T10:57:56.240Z,30.91
2023-06-11T11:01:02.193Z,30.50
2023-06-11T11:04:07.308Z,30.65
2023-06-11T11:07:11.696Z,30.63
2023-06-11T11:10:20.911Z,30.34
2023-06-11T11:13:25.223Z,30.20
2023-06-11T11:16:31.570Z,30.06
2023-06-11T11:19:37.403Z,29.57
2023-06-11T11:22:41.709Z,28.82
2023-06-11T11:25:45.997Z,28.08
2023-06-11T11:28:50.124Z,28.36
2023-06-11T11:31:56.102Z,28.17
2023-06-11T11:35:02.043Z,28.13
2023-06-11T11:38:06.228Z,28.02
2023-06-11T11:41:11.544Z,28.22
2023-06-11T11:44:17.397Z,28.06
2023-06-11T11:47:24.070Z,28.13
2023-06-11T11:50:31.654Z,28.32
2023-06-11T11:53:36.166Z,28.35
2023-06-11T11:56:41.114Z,28.55
2023-06-11T11:59:45.428Z,28.59
2023-06-11T12:02:51.126Z,28.28
2023-06-11T12:06:00.256Z,28.21
2023-06-11T12:09:04.552Z,28.30
2023-06-11T12:12:10.113Z,28.28
2023-06-11T12:15:14.522Z,28.17
2023-06-11T12:18:20.265Z,28.04
2023-06-11T12:21:24.799Z,28.47
2023-06-11T12:24:30.668Z,28.18
2023-06-11T12:27:34.993Z,28.49
2023-06-11T12:30:39.181Z,28.86
2023-06-11T12:33:44.767Z,28.76
2023-06-11T12:36:50.265Z,29.05
2023-06-11T12:39:54.645Z,29.21
2023-06-11T12:43:00.833Z,29.19
2023-06-11T12:46:05.262Z,28.92
2023-06-11T12:49:10.913Z,28.75
2023-06-11T12:52:15.321Z,28.35
2023-06-11T12:55:19.726Z,28.44
2023-06-11T12:58:24.576Z,28.44
2023-06-11T13:01:28.769Z,28.83
2023-06-11T13:04:34.567Z,28.32
2023-06-11T13:07:39.017Z,27.83
2023-06-11T13:10:43.340Z,28.30
2023-06-11T13:13:47.797Z,28.46
2023-06-11T13:16:53.100Z,28.70
2023-06-11T13:19:58.879Z,29.05
2023-06-11T13:23:02.987Z,28.79
2023-06-11T13:26:07.408Z,28.76
2023-06-11T13:29:11.612Z,28.72
2023-06-11T13:32:16.467Z,28.41
2023-06-11T13:35:22.229Z,29.00
2023-06-11T13:38:27.673Z,29.37
2023-06-11T13:41:31.919Z,28.85
2023-06-11T13:44:36.230Z,28.68
2023-06-11T13:47:40.417Z,28.57
2023-06-11T13:50:48.635Z,28.02
2023-06-11T13:53:52.674Z,28.26
2023-06-11T13:56:57.719Z,28.04
2023-06-11T14:00:02.338Z,28.06
2023-06-11T14:03:16.607Z,28.33
2023-06-11T14:06:22.994Z,28.60
2023-06-11T14:09:27.200Z,28.67
2023-06-11T14:12:31.320Z,28.40
2023-06-11T14:15:35.530Z,28.59
2023-06-11T14:18:39.744Z,28.52
2023-06-11T14:21:45.394Z,28.51
2023-06-11T14:24:49.539Z,28.63
2023-06-11T14:27:53.740Z,28.98
2023-06-11T14:30:57.869Z,28.64
2023-06-11T14:34:02.054Z,28.71
2023-06-11T14:37:08.441Z,28.98
2023-06-11T14:40:13.530Z,28.52
2023-06-11T14:43:18.054Z,28.90
2023-06-11T14:46:23.216Z,28.65
2023-06-11T14:49:27.381Z,28.69
2023-06-11T14:52:32.952Z,28.28
2023-06-11T14:55:37.061Z,28.41
2023-06-11T14:58:41.153Z,28.44
2023-06-11T15:01:45.735Z,28.39
2023-06-11T15:04:50.316Z,28.60
2023-06-11T15:07:55.988Z,28.28
2023-06-11T15:11:00.240Z,27.91
2023-06-11T15:14:05.191Z,28.22
2023-06-11T15:17:09.426Z,27.88
2023-06-11T15:20:14.769Z,28.05
2023-06-11T15:23:20.740Z,28.15
2023-06-11T15:26:24.898Z,28.10
2023-06-11T15:29:29.260Z,28.21
2023-06-11T15:32:33.512Z,27.84
2023-06-11T15:35:37.760Z,27.63
2023-06-11T15:38:43.389Z,27.37
2023-06-11T15:41:47.539Z,27.32
2023-06-11T15:44:51.849Z,27.50
2023-06-11T15:47:56.935Z,27.52
2023-06-11T15:51:02.240Z,27.60
2023-06-11T15:54:07.894Z,27.39
2023-06-11T15:57:13.225Z,27.38
2023-06-11T16:00:18.281Z,27.49
2023-06-11T16:03:22.621Z,27.30
2023-06-11T16:06:26.953Z,27.36
2023-06-11T16:09:32.672Z,27.28
2023-06-11T16:12:36.758Z,27.18
2023-06-11T16:15:41.626Z,27.30
2023-06-11T16:18:45.916Z,27.21
2023-06-11T16:21:50.234Z,27.24
2023-06-11T16:24:55.949Z,27.24
2023-06-11T16:28:00.173Z,27.11
2023-06-11T16:31:04.456Z,27.02
2023-06-11T16:34:09.037Z,26.75
2023-06-11T16:37:13.190Z,26.66
2023-06-11T16:40:18.888Z,26.69
2023-06-11T16:43:23.131Z,26.79
2023-06-11T16:46:27.299Z,26.88
2023-06-11T16:49:31.478Z,26.77
2023-06-11T16:52:37.009Z,26.69
2023-06-11T16:55:43.763Z,26.60
2023-06-11T16:58:48.003Z,26.59
2023-06-11T17:01:52.198Z,25.82
2023-06-11T17:04:56.416Z,25.74
2023-06-11T17:08:02.508Z,25.65
2023-06-11T17:11:09.661Z,25.64
2023-06-11T17:14:13.919Z,25.32
2023-06-11T17:17:17.994Z,25.06
2023-06-11T17:20:22.784Z,24.95
2023-06-11T17:23:27.663Z,25.17
2023-06-11T17:26:34.731Z,25.18
2023-06-11T17:29:38.915Z,25.10
2023-06-11T17:32:43.139Z,25.27
2023-06-11T17:35:47.324Z,25.43
2023-06-11T17:38:51.531Z,25.42
2023-06-11T17:41:57.285Z,24.98
2023-06-11T17:45:01.427Z,25.30
2023-06-11T17:48:06.006Z,24.99
2023-06-11T17:51:10.277Z,25.17
2023-06-11T17:54:14.468Z,25.01
2023-06-11T17:57:21.845Z,24.88
2023-06-11T18:00:26.657Z,24.98
2023-06-11T18:03:30.873Z,24.89
2023-06-11T18:06:35.578Z,24.56
2023-06-11T18:09:39.807Z,24.61
2023-06-11T18:12:46.001Z,24.66
2023-06-11T18:15:50.374Z,24.64
2023-06-11T18:18:55.858Z,24.54
2023-06-11T18:22:00.135Z,24.82
2023-06-11T18:25:04.402Z,24.69
2023-06-11T18:28:10.057Z,24.64
2023-06-11T18:31:14.712Z,24.70
2023-06-11T18:34:18.801Z,24.47
2023-06-11T18:37:22.997Z,24.50
2023-06-11T18:40:27.165Z,24.37
2023-06-11T18:43:32.868Z,23.96
2023-06-11T18:46:39.397Z,24.01
2023-06-11T18:49:44.635Z,24.03
2023-06-11T18:52:48.851Z,23.94
2023-06-11T18:55:53.116Z,23.95
2023-06-11T18:58:58.839Z,24.01
2023-06-11T19:02:03.029Z,24.03
2023-06-11T19:05:07.992Z,24.15
2023-06-11T19:08:12.233Z,24.08
2023-06-11T19:11:16.371Z,23.91
2023-06-11T19:14:22.161Z,23.86
2023-06-11T19:17:26.866Z,24.02
2023-06-11T19:20:32.376Z,24.11
2023-06-11T19:23:36.606Z,24.28
2023-06-11T19:26:40.889Z,24.06
2023-06-11T19:29:46.643Z,23.99
2023-06-11T19:32:50.855Z,23.96
2023-06-11T19:35:54.927Z,23.97
2023-06-11T19:38:59.321Z,24.04
2023-06-11T19:42:03.421Z,24.18
2023-06-11T19:45:11.218Z,24.01
2023-06-11T19:48:20.157Z,23.88
2023-06-11T19:51:24.452Z,23.90
2023-06-11T19:54:41.873Z,23.92
2023-06-11T19:57:53.499Z,23.72
2023-06-11T20:00:59.240Z,23.80
2023-06-11T20:04:03.405Z,23.84
2023-06-11T20:07:08.365Z,23.90
2023-06-11T20:10:13.297Z,23.74
2023-06-11T20:13:17.870Z,23.86
2023-06-11T20:16:23.728Z,23.78
2023-06-11T20:19:28.038Z,23.78
2023-06-11T20:22:32.924Z,23.83
2023-06-11T20:25:37.106Z,23.88
2023-06-11T20:28:41.395Z,23.97
2023-06-11T20:31:47.051Z,23.85
2023-06-11T20:34:51.350Z,23.87
2023-06-11T20:37:55.593Z,23.80
2023-06-11T20:41:00.134Z,23.74
2023-06-11T20:44:04.343Z,23.94
2023-06-11T20:47:10.768Z,23.80
2023-06-11T20:50:15.054Z,23.72
2023-06-11T20:53:32.562Z,23.54
2023-06-11T20:56:38.520Z,23.49
2023-06-11T20:59:44.543Z,23.66
2023-06-11T21:02:50.275Z,23.46
2023-06-11T21:05:55.908Z,23.27
2023-06-11T21:09:00.168Z,23.39
2023-06-11T21:12:04.389Z,23.71
2023-06-11T21:15:09.627Z,23.80
2023-06-11T21:18:15.433Z,23.68
2023-06-11T21:21:19.637Z,23.58
2023-06-11T21:24:23.995Z,23.49
2023-06-11T21:27:28.255Z,23.28
2023-06-11T21:30:32.536Z,23.30
2023-06-11T21:33:38.167Z,23.37
2023-06-11T21:36:42.443Z,23.30
2023-06-11T21:39:46.825Z,23.30
2023-06-11T21:42:50.935Z,23.06
2023-06-11T21:45:55.078Z,23.27
2023-06-11T21:49:00.719Z,23.19
2023-06-11T21:52:05.066Z,23.26
2023-06-11T21:55:09.858Z,23.27
2023-06-11T21:58:14.258Z,23.37
2023-06-11T22:01:24.428Z,23.23
2023-06-11T22:04:30.049Z,22.95
2023-06-11T22:07:35.281Z,22.76
2023-06-11T22:10:39.420Z,23.06
2023-06-11T22:13:43.511Z,22.76
2023-06-11T22:16:48.834Z,22.62
2023-06-11T22:19:54.561Z,22.81
2023-06-11T22:22:58.792Z,22.83
2023-06-11T22:26:05.660Z,22.78
2023-06-11T22:29:10.254Z,22.82
2023-06-11T22:32:14.382Z,22.90
2023-06-11T22:35:20.087Z,23.07
2023-06-11T22:38:24.363Z,23.23
2023-06-11T22:41:28.670Z,23.04
2023-06-11T22:44:32.751Z,23.21
2023-06-11T22:47:37.000Z,23.27
2023-06-11T22:50:42.615Z,23.28
2023-06-11T22:53:46.811Z,23.12
2023-06-11T22:56:51.224Z,23.23
2023-06-11T22:59:55.359Z,23.17
2023-06-11T23:02:59.644Z,23.28
2023-06-11T23:06:08.384Z,23.43
2023-06-11T23:09:12.492Z,23.44
2023-06-11T23:12:16.681Z,23.23
2023-06-11T23:15:21.258Z,23.25
2023-06-11T23:18:26.612Z,23.26
2023-06-11T23:21:32.463Z,23.36
2023-06-11T23:24:42.035Z,23.40
2023-06-11T23:27:46.683Z,23.46
2023-06-11T23:30:51.973Z,23.46
2023-06-11T23:33:56.094Z,22.80
2023-06-11T23:37:01.867Z,22.93
2023-06-11T23:40:08.624Z,23.07
2023-06-11T23:43:12.884Z,23.23
2023-06-11T23:46:17.115Z,23.29
2023-06-11T23:49:21.264Z,23.19
2023-06-11T23:52:27.021Z,22.94
2023-06-11T23:55:31.267Z,23.19
2023-06-11T23:58:35.526Z,23.18
